Alma, Alabama
Current Conditions -  °F | °C
As of 12:53 PM on Friday 28 Nov 2014 (Local Time) from KGZH Reporting Station
Clear Clear  
Wind Chill: 57°   Ceiling: Unl
Heat Index: 57°   Visibility: 10mi
Dew Point: 23°   Wind: 7mph
Humidity: 27%   Direction: 30°NNE
Pressure: 30.35"   Gusts: NA
Location:  31.46°N, 87.75°W
Report Text: KGZH 281853Z AUTO 03006KT 10SM CLR 14/M05 A3035 RMK AO2 SLP277 T01391050
Loading
Personal Weather Stations






























Interactive Weather Map New forecast layout! Learn more

10-Day Weather Forecast

Advertisements
Track Severe Weather on mobile